• Join FlightAware (Why Join?)
  • Login
  • US Flag 
04:15AM EDT


 

Airport Tracker/Info


-or-


 

Live Flight TrackerFlight Track Log ✈ UCA596 ✈ 05-Sep-2013 ✈ KIAD - KBGM

Flight Track Log - Related Links

Times and Time Zones

All times are in EDT time to prevent confusion due to time zone crossing. See the UCA596 flight status page for this flight to view local times or setup timezone preferences in your user account.

Time Position Orientation Groundspeed Altitude Reporting Facility
EDT Latitude Longitude Course Direction KTS MPH feet Rate Location/Type
12:54PM 39.0167 -77.4833 345° North 175 201 3,400  Level Potomac TRACON
12:55PM 39.0667 -77.5000 345° North 187 215 5,100 1,560 Climbing Potomac TRACON
12:56PM 39.1000 -77.5333 322° Northwest 174 200 6,600 1,440 Climbing Potomac TRACON
12:57PM 39.1500 -77.5500 346° North 181 208 8,000 1,200 Climbing Potomac TRACON
12:58PM 39.2000 -77.5833 333° Northwest 187 215 9,100 1,140 Climbing Potomac TRACON
01:00PM 39.3028 -77.6272 342° North 192 221 11,500 1,200 Climbing Washington Center
01:01PM 39.3569 -77.6261 North 185 213 12,800 1,380 Climbing Washington Center
01:02PM 39.4094 -77.5928 26° Northeast 185 213 14,300 1,260 Climbing Washington Center
01:03PM 39.4622 -77.5619 24° Northeast 191 220 15,400 900 Climbing Washington Center
01:04PM 39.5211 -77.5258 25° Northeast 203 234 16,100 840 Climbing Washington Center
01:06PM 39.6492 -77.4500 25° Northeast 233 268 18,200 900 Climbing New York Center
01:07PM 39.7114 -77.4533 358° North 206 237 19,000 360 Climbing New York Center
01:08PM 39.7719 -77.4536 360° North 223 257 19,000  Level New York Center
01:09PM 39.8475 -77.4094 24° Northeast 245 282 19,000  Level New York Center
01:10PM 39.9097 -77.3775 21° North 259 298 19,000  Level New York Center
01:11PM 39.9761 -77.3106 38° Northeast 271 312 19,000  Level New York Center
01:12PM 40.0311 -77.2561 37° Northeast 276 318 19,000  Level New York Center
01:13PM 40.1081 -77.2225 18° North 264 304 19,000  Level New York Center
01:14PM 40.1681 -77.1900 22° Northeast 259 298 19,000  Level New York Center
01:15PM 40.2431 -77.1533 20° North 259 298 19,000  Level New York Center
01:16PM 40.3056 -77.1183 23° Northeast 259 298 19,000  Level New York Center
01:17PM 40.3783 -77.0814 21° North 252 290 19,000  Level New York Center
01:18PM 40.4403 -77.0517 20° North 252 290 19,000  Level New York Center
01:19PM 40.5175 -77.0122 21° North 260 299 19,000  Level New York Center
01:20PM 40.5775 -76.9794 23° Northeast 255 293 19,000  Level New York Center
01:21PM 40.6528 -76.9397 22° Northeast 255 293 19,000  Level New York Center
01:22PM 40.7167 -76.9097 20° North 255 293 19,000  Level New York Center
01:23PM 40.7939 -76.8672 23° Northeast 255 293 19,000 -360 Level New York Center
01:24PM 40.8581 -76.8347 21° North 262 302 18,300 -840 Descending New York Center
01:25PM 40.9292 -76.7914 25° Northeast 268 308 17,400 -660 Descending New York Center
01:26PM 41.0000 -76.7483 25° Northeast 273 314 17,000 -240 Descending New York Center
01:27PM 41.0669 -76.7047 26° Northeast 268 308 17,000  Level New York Center
01:28PM 41.1333 -76.6664 24° Northeast 261 300 17,000  Level New York Center
01:29PM 41.2044 -76.6175 27° Northeast 261 300 17,000  Level New York Center
01:30PM 41.2711 -76.5761 25° Northeast 261 300 17,000  Level New York Center
01:31PM 41.3378 -76.5350 25° Northeast 261 300 17,000  Level New York Center
01:32PM 41.3981 -76.4958 26° Northeast 261 300 17,000  Level New York Center
01:33PM 41.4667 -76.4547 24° Northeast 261 300 17,000 -780 Level New York Center
01:34PM 41.5419 -76.4028 27° Northeast 266 306 15,500 -1,500 Descending New York Center
01:35PM 41.6128 -76.3589 25° Northeast 276 318 14,000 -1,500 Descending New York Center
01:36PM 41.6836 -76.3147 25° Northeast 282 325 12,500 -1,620 Descending New York Center
01:37PM 41.7458 -76.2756 25° Northeast 276 318 10,900 -1,500 Descending New York Center
01:38PM 41.8122 -76.2364 24° Northeast 269 310 9,500 -1,620 Descending New York Center
01:39PM 41.8831 -76.1894 26° Northeast 264 304 7,700 -1,680 Descending New York Center
01:41PM 41.9432 -76.1379 26° Northeast  Level FlightAware Approximate
01:41PM 41.9950 -76.1064 26° Northeast 237 273 4,600  Level New York Center
01:42PM 42.0306 -76.0561 46° Northeast 213 245 4,000 -300 Descending New York Center
01:43PM 42.0767 -76.0011 42° Northeast 208 239 4,000 2,460 Level New York Center
01:44PM 42.1164 -75.9486 44° Northeast 208 239 9,000 2,460 Climbing New York Center
01:45PM 42.1542 -75.8956 46° Northeast 208 239 9,000  Level New York Center
01:46PM 42.1939 -75.8425 45° Northeast 208 239 9,000  Level New York Center
01:47PM 42.2094 -75.8214 45° Northeast 208 239 9,000  Level New York Center
01:49PM 42.2094 -75.8214 10° North 208 239 9,000  Level New York Center
01:52PM 42.2000 -75.9667 North  Level FlightAware Approximate
01:59PM 42.2086 -75.9797 North  Level Estimated
02:00PM 42.2086 -75.9797 North  Level Estimated
02:01PM 42.2086 -75.9797 North  Level Estimated
02:02PM 42.2086 -75.9797 North  Level Estimated
02:03PM 42.2086 -75.9797 North  Level Estimated
02:04PM 42.2086 -75.9797 North  Level Estimated
02:05PM 42.2086 -75.9797 North  Level Estimated
02:06PM 42.2086 -75.9797 North  Level Estimated